Time;durP1;ratioP1;P1;durP2;ratioP2;P2;SDS_P1;SDS_P2;PMS_P1;PMS_P2;Temp;Humidity;BMP_temperature;BMP_pressure;BME280_temperature;BME280_humidity;BME280_pressure;Samples;Min_cycle;Max_cycle;Signal;HPM_P1;HPM_P2
2023/10/28 00:01:06;;;;;;;17.05;6.75;;;6.80;100.00;;;;;;4880800;29;20060;-69
2023/10/28 00:03:33;;;;;;;16.98;6.72;;;6.80;100.00;;;;;;4880167;29;20057;-70
2023/10/28 00:06:01;;;;;;;14.32;7.18;;;6.80;100.00;;;;;;4880118;29;20061;-70
2023/10/28 00:08:28;;;;;;;19.02;7.65;;;6.80;100.00;;;;;;4880115;29;20794;-70
2023/10/28 00:10:55;;;;;;;15.57;7.07;;;6.80;100.00;;;;;;4879318;29;20056;-70
2023/10/28 00:13:22;;;;;;;15.43;7.47;;;6.80;100.00;;;;;;4880045;29;20132;-70
2023/10/28 00:15:49;;;;;;;19.00;7.95;;;6.80;100.00;;;;;;4879160;29;20080;-70
2023/10/28 00:18:16;;;;;;;16.10;7.18;;;6.80;100.00;;;;;;4882707;29;20044;-70
2023/10/28 00:20:44;;;;;;;17.75;6.78;;;6.80;100.00;;;;;;4880756;29;20079;-70
2023/10/28 00:23:14;;;;;;;16.95;7.10;;;6.80;100.00;;;;;;4882078;29;20195;-70
2023/10/28 00:25:41;;;;;;;19.83;7.20;;;6.80;100.00;;;;;;4882415;29;20143;-70
2023/10/28 00:28:09;;;;;;;21.25;7.72;;;6.80;100.00;;;;;;4882473;29;20057;-70
2023/10/28 00:30:40;;;;;;;16.90;6.53;;;6.80;100.00;;;;;;4879081;29;20192;-70
2023/10/28 00:33:07;;;;;;;19.17;6.72;;;6.80;100.00;;;;;;4886572;29;20080;-70
2023/10/28 00:35:34;;;;;;;16.33;6.80;;;6.80;100.00;;;;;;4866401;29;20072;-70
2023/10/28 00:38:01;;;;;;;16.55;6.50;;;6.80;100.00;;;;;;4882530;29;20508;-70
2023/10/28 00:40:29;;;;;;;16.08;6.78;;;6.80;100.00;;;;;;4867623;29;20087;-70
2023/10/28 00:42:59;;;;;;;14.40;6.22;;;6.80;100.00;;;;;;4880220;29;20052;-70
2023/10/28 00:45:27;;;;;;;15.15;6.35;;;6.80;100.00;;;;;;4880938;29;20049;-70
2023/10/28 00:47:56;;;;;;;19.15;7.05;;;6.70;100.00;;;;;;4867977;29;20173;-70
2023/10/28 00:50:23;;;;;;;17.35;6.82;;;6.80;100.00;;;;;;4881480;29;20076;-69
2023/10/28 00:52:54;;;;;;;18.38;6.35;;;6.80;100.00;;;;;;4880346;29;20053;-70
2023/10/28 00:55:22;;;;;;;16.48;6.00;;;6.80;100.00;;;;;;4879667;29;20048;-70
2023/10/28 00:57:51;;;;;;;13.25;5.90;;;6.80;100.00;;;;;;4880881;29;20056;-70
2023/10/28 01:00:18;;;;;;;15.32;6.60;;;6.80;100.00;;;;;;4879930;29;20252;-70
2023/10/28 01:02:45;;;;;;;16.25;5.45;;;6.80;100.00;;;;;;4879940;29;20051;-70
2023/10/28 01:05:13;;;;;;;16.20;6.03;;;6.80;100.00;;;;;;4880877;29;20156;-70
2023/10/28 01:07:49;;;;;;;12.63;6.13;;;6.80;100.00;;;;;;4880086;29;20052;-70
2023/10/28 01:10:27;;;;;;;13.73;6.13;;;6.80;100.00;;;;;;4881157;29;20373;-70
2023/10/28 01:12:54;;;;;;;13.32;5.55;;;6.80;100.00;;;;;;4883714;29;20053;-70
2023/10/28 01:15:22;;;;;;;14.45;5.82;;;6.80;100.00;;;;;;4884787;29;20112;-70
2023/10/28 01:17:49;;;;;;;13.55;5.53;;;6.80;100.00;;;;;;4879744;29;20060;-70
2023/10/28 01:20:16;;;;;;;15.43;5.80;;;6.80;100.00;;;;;;4880251;29;20131;-70
2023/10/28 01:22:43;;;;;;;13.30;5.38;;;6.90;100.00;;;;;;4879554;29;20061;-70
2023/10/28 01:25:11;;;;;;;15.93;5.18;;;6.80;100.00;;;;;;4880393;29;20052;-70
2023/10/28 01:27:38;;;;;;;11.35;4.88;;;6.80;100.00;;;;;;4880066;29;20236;-70
2023/10/28 01:30:13;;;;;;;12.85;5.55;;;6.80;100.00;;;;;;4885440;29;20139;-70
2023/10/28 01:32:42;;;;;;;11.82;4.95;;;6.80;100.00;;;;;;4882582;29;20072;-70
2023/10/28 01:35:12;;;;;;;12.27;5.03;;;6.80;100.00;;;;;;4885452;29;20053;-70
2023/10/28 01:37:40;;;;;;;11.38;5.22;;;6.80;100.00;;;;;;4885812;29;20048;-70
2023/10/28 01:40:13;;;;;;;13.57;4.80;;;6.80;100.00;;;;;;4885514;29;20065;-70
2023/10/28 01:42:44;;;;;;;12.00;4.78;;;6.80;100.00;;;;;;4882113;29;20146;-70
2023/10/28 01:45:12;;;;;;;9.93;4.07;;;6.80;100.00;;;;;;4894882;29;20077;-70
2023/10/28 01:47:41;;;;;;;11.38;5.00;;;6.80;100.00;;;;;;4887692;29;20080;-70
2023/10/28 01:50:11;;;;;;;15.18;4.90;;;6.80;100.00;;;;;;4885266;29;20057;-70
2023/10/28 01:52:39;;;;;;;12.88;5.70;;;6.80;100.00;;;;;;4887336;29;20049;-70
2023/10/28 01:55:11;;;;;;;14.43;5.20;;;6.80;100.00;;;;;;4880167;29;20055;-70
2023/10/28 01:57:39;;;;;;;11.73;4.70;;;6.80;100.00;;;;;;4880217;29;20060;-70
2023/10/28 02:00:12;;;;;;;14.40;4.47;;;6.80;100.00;;;;;;4865778;29;20072;-70
2023/10/28 02:02:39;;;;;;;12.00;5.07;;;6.80;100.00;;;;;;4880248;29;20049;-70
2023/10/28 02:05:08;;;;;;;11.23;4.78;;;6.80;100.00;;;;;;4881889;29;20048;-70
2023/10/28 02:07:35;;;;;;;14.02;4.85;;;6.80;100.00;;;;;;4885387;29;20060;-70
2023/10/28 02:10:04;;;;;;;10.77;4.72;;;6.80;100.00;;;;;;4882744;29;20059;-70
2023/10/28 02:12:34;;;;;;;17.48;5.80;;;6.80;100.00;;;;;;4884146;29;20550;-70
2023/10/28 02:15:06;;;;;;;15.75;5.55;;;6.80;100.00;;;;;;4873783;29;20059;-70
2023/10/28 02:17:35;;;;;;;12.60;4.85;;;6.70;100.00;;;;;;4887023;29;20179;-70
2023/10/28 02:20:03;;;;;;;12.43;4.53;;;6.80;100.00;;;;;;4883627;29;20120;-70
2023/10/28 02:22:34;;;;;;;10.65;4.63;;;6.70;100.00;;;;;;4882142;29;20052;-70
2023/10/28 02:25:01;;;;;;;15.88;5.22;;;6.80;100.00;;;;;;4868440;29;20064;-70
2023/10/28 02:27:27;;;;;;;15.02;5.03;;;6.70;100.00;;;;;;4888453;29;20052;-70
2023/10/28 02:29:54;;;;;;;14.90;5.05;;;6.70;100.00;;;;;;4882927;29;21000;-70
2023/10/28 02:32:21;;;;;;;10.65;4.57;;;6.80;100.00;;;;;;4871907;29;20504;-70
2023/10/28 02:34:48;;;;;;;11.93;4.88;;;6.80;100.00;;;;;;4885362;29;20045;-70
2023/10/28 02:37:15;;;;;;;17.10;5.03;;;6.80;100.00;;;;;;4883249;29;20052;-70
2023/10/28 02:39:42;;;;;;;11.80;4.82;;;6.80;100.00;;;;;;4887267;29;20075;-70
2023/10/28 02:42:09;;;;;;;11.63;4.72;;;6.80;100.00;;;;;;4882302;29;20060;-70
2023/10/28 02:44:36;;;;;;;13.55;4.57;;;6.80;100.00;;;;;;4881628;29;20080;-70
2023/10/28 02:47:03;;;;;;;12.93;4.57;;;6.70;100.00;;;;;;4883928;29;20062;-70
2023/10/28 02:49:31;;;;;;;12.32;4.97;;;6.80;100.00;;;;;;4881730;29;20053;-70
2023/10/28 02:51:58;;;;;;;11.48;5.38;;;6.70;100.00;;;;;;4881426;29;20056;-70
2023/10/28 02:54:25;;;;;;;11.68;5.15;;;6.70;100.00;;;;;;4885599;29;20059;-69
2023/10/28 02:56:51;;;;;;;11.82;4.70;;;6.70;100.00;;;;;;4886370;29;20049;-70
2023/10/28 02:59:19;;;;;;;18.98;4.78;;;6.80;100.00;;;;;;4883488;29;20053;-70
2023/10/28 03:01:46;;;;;;;17.08;4.90;;;6.80;100.00;;;;;;4880835;29;20534;-70
2023/10/28 03:04:13;;;;;;;14.25;5.28;;;6.80;100.00;;;;;;4882562;29;20406;-70
2023/10/28 03:06:40;;;;;;;12.85;4.78;;;6.80;100.00;;;;;;4882805;29;21004;-70
2023/10/28 03:09:07;;;;;;;15.18;4.70;;;6.70;100.00;;;;;;4888920;29;20062;-70
2023/10/28 03:11:34;;;;;;;12.43;4.88;;;6.80;100.00;;;;;;4885782;29;20048;-70
2023/10/28 03:14:01;;;;;;;11.75;4.82;;;6.80;100.00;;;;;;4888066;29;20052;-70
2023/10/28 03:16:28;;;;;;;13.70;6.13;;;6.80;100.00;;;;;;4888376;29;20075;-70
2023/10/28 03:18:56;;;;;;;16.42;5.35;;;6.80;100.00;;;;;;4889269;29;20107;-70
2023/10/28 03:21:23;;;;;;;18.23;5.05;;;6.80;100.00;;;;;;4883809;29;20053;-70
2023/10/28 03:23:50;;;;;;;11.80;5.15;;;6.80;100.00;;;;;;4882594;29;20060;-70
2023/10/28 03:26:17;;;;;;;16.55;5.47;;;6.70;100.00;;;;;;4882278;29;20057;-70
2023/10/28 03:28:44;;;;;;;13.38;5.15;;;6.80;100.00;;;;;;4887088;29;20138;-70
2023/10/28 03:31:12;;;;;;;16.45;6.05;;;6.80;100.00;;;;;;4885213;29;20040;-70
2023/10/28 03:33:40;;;;;;;14.02;5.55;;;6.80;100.00;;;;;;4887421;29;20398;-76
2023/10/28 03:36:09;;;;;;;12.50;5.35;;;6.80;100.00;;;;;;4890662;29;20045;-76
2023/10/28 03:38:36;;;;;;;18.40;6.90;;;6.80;100.00;;;;;;4890783;29;20045;-76
2023/10/28 03:41:06;;;;;;;12.95;5.35;;;6.80;100.00;;;;;;4888119;29;20139;-76
2023/10/28 03:43:33;;;;;;;15.48;5.28;;;6.80;100.00;;;;;;4888312;29;20822;-76
2023/10/28 03:46:00;;;;;;;15.02;5.63;;;6.80;100.00;;;;;;4891692;29;20119;-76
2023/10/28 03:48:28;;;;;;;15.43;5.65;;;6.80;100.00;;;;;;4888769;29;20048;-76
2023/10/28 03:51:01;;;;;;;12.52;5.57;;;6.80;100.00;;;;;;4889664;29;20052;-76
2023/10/28 03:53:28;;;;;;;13.82;5.25;;;6.80;100.00;;;;;;4888779;29;20052;-76
2023/10/28 03:55:55;;;;;;;23.30;5.78;;;6.80;100.00;;;;;;4893236;29;20049;-76
2023/10/28 03:58:22;;;;;;;15.88;5.63;;;6.80;100.00;;;;;;4886606;29;20055;-77
2023/10/28 04:00:53;;;;;;;14.88;5.82;;;6.80;100.00;;;;;;4872940;29;20052;-77
2023/10/28 04:03:21;;;;;;;16.00;5.97;;;6.80;100.00;;;;;;4881694;29;20427;-76
2023/10/28 04:05:49;;;;;;;15.25;6.70;;;6.70;100.00;;;;;;4884387;29;20157;-76
2023/10/28 04:08:16;;;;;;;13.10;5.28;;;6.70;100.00;;;;;;4888838;29;20052;-76
2023/10/28 04:10:43;;;;;;;19.10;6.75;;;6.70;100.00;;;;;;4889026;29;20062;-76
2023/10/28 04:13:12;;;;;;;17.33;5.72;;;6.70;100.00;;;;;;4885471;29;20052;-76
2023/10/28 04:15:40;;;;;;;16.73;5.75;;;6.70;100.00;;;;;;4885762;29;20045;-76
2023/10/28 04:18:08;;;;;;;16.70;5.30;;;6.80;100.00;;;;;;4885452;29;20044;-76
2023/10/28 04:20:35;;;;;;;14.00;4.85;;;6.70;100.00;;;;;;4887795;29;20044;-76
2023/10/28 04:23:02;;;;;;;15.10;5.60;;;6.70;100.00;;;;;;4888411;29;20423;-75
2023/10/28 04:25:30;;;;;;;15.07;5.35;;;6.70;100.00;;;;;;4887914;29;20056;-76
2023/10/28 04:31:44;;;;;;;15.60;5.38;;;6.70;100.00;;;;;;4924822;23;20059;-75
2023/10/28 04:34:11;;;;;;;13.73;5.05;;;6.70;100.00;;;;;;4913579;29;20055;-75
2023/10/28 04:36:38;;;;;;;14.85;5.57;;;6.70;100.00;;;;;;4903992;29;20769;-75
2023/10/28 04:39:05;;;;;;;13.18;4.88;;;6.70;100.00;;;;;;4917807;29;20075;-75
2023/10/28 04:41:32;;;;;;;16.67;6.00;;;6.70;100.00;;;;;;4920204;29;20071;-76
2023/10/28 04:44:01;;;;;;;15.98;5.15;;;6.70;100.00;;;;;;4898618;29;20063;-75
2023/10/28 04:46:29;;;;;;;13.45;5.15;;;6.70;100.00;;;;;;4920898;29;20533;-75
2023/10/28 04:48:57;;;;;;;13.13;5.03;;;6.70;100.00;;;;;;4910204;29;20059;-75
2023/10/28 04:51:24;;;;;;;14.88;4.75;;;6.70;100.00;;;;;;4928375;29;20163;-75
2023/10/28 04:53:51;;;;;;;14.85;5.13;;;6.70;100.00;;;;;;4911017;29;20454;-76
2023/10/28 04:56:18;;;;;;;12.13;5.40;;;6.60;100.00;;;;;;4920514;29;20603;-76
2023/10/28 04:58:45;;;;;;;13.18;5.40;;;6.60;100.00;;;;;;4916264;29;20048;-76
2023/10/28 05:01:12;;;;;;;28.88;5.47;;;6.60;100.00;;;;;;4923732;29;20055;-75
2023/10/28 05:03:39;;;;;;;15.77;5.45;;;6.60;100.00;;;;;;4918078;29;20047;-76
2023/10/28 05:06:09;;;;;;;15.80;5.18;;;6.60;100.00;;;;;;4914496;29;20052;-75
2023/10/28 05:08:37;;;;;;;16.27;5.65;;;6.60;100.00;;;;;;4920053;29;20158;-75
2023/10/28 05:11:04;;;;;;;17.30;5.93;;;6.60;100.00;;;;;;4912726;29;20146;-75
2023/10/28 05:13:31;;;;;;;16.95;5.75;;;6.60;100.00;;;;;;4917709;29;20054;-75
2023/10/28 05:15:58;;;;;;;17.48;5.72;;;6.60;100.00;;;;;;4923685;29;20553;-75
2023/10/28 05:18:26;;;;;;;12.73;4.82;;;6.60;100.00;;;;;;4901038;29;20048;-75
2023/10/28 05:20:53;;;;;;;20.33;5.68;;;6.60;100.00;;;;;;4919476;29;20087;-75
2023/10/28 05:23:20;;;;;;;16.13;5.40;;;6.60;100.00;;;;;;4910622;29;20155;-75
2023/10/28 05:25:47;;;;;;;19.60;6.38;;;6.60;100.00;;;;;;4925027;29;20058;-75
2023/10/28 05:28:13;;;;;;;15.00;5.93;;;6.60;100.00;;;;;;4919289;29;20058;-75
2023/10/28 05:30:40;;;;;;;13.68;5.72;;;6.60;100.00;;;;;;4915093;29;20087;-75
2023/10/28 05:33:07;;;;;;;12.90;5.18;;;6.60;100.00;;;;;;4919369;29;20473;-76
2023/10/28 05:35:34;;;;;;;14.27;5.95;;;6.60;100.00;;;;;;4923507;29;20741;-75
2023/10/28 05:38:01;;;;;;;17.55;5.65;;;6.60;100.00;;;;;;4903745;29;20060;-75
2023/10/28 05:40:28;;;;;;;22.15;5.93;;;6.60;100.00;;;;;;4925504;29;20620;-75
2023/10/28 05:42:55;;;;;;;18.13;6.60;;;6.60;100.00;;;;;;4927058;29;20083;-75
2023/10/28 05:45:22;;;;;;;16.20;6.47;;;6.60;100.00;;;;;;4927243;29;20127;-76
2023/10/28 05:47:48;;;;;;;13.43;5.88;;;6.60;100.00;;;;;;4910009;29;20051;-75
2023/10/28 05:50:17;;;;;;;21.67;6.05;;;6.60;100.00;;;;;;4916789;29;20085;-75
2023/10/28 05:52:44;;;;;;;19.15;6.65;;;6.60;100.00;;;;;;4926268;29;20102;-75
2023/10/28 05:55:12;;;;;;;19.80;6.68;;;6.60;100.00;;;;;;4928745;23;20056;-70
2023/10/28 05:57:40;;;;;;;17.10;5.82;;;6.60;100.00;;;;;;4948502;28;20062;-70
2023/10/28 06:00:11;;;;;;;20.77;6.03;;;6.60;100.00;;;;;;4938306;28;20110;-70
2023/10/28 06:02:38;;;;;;;24.88;6.80;;;6.60;100.00;;;;;;4955274;28;20058;-70
2023/10/28 06:05:08;;;;;;;19.55;6.45;;;6.60;100.00;;;;;;4959915;28;20050;-70
2023/10/28 06:07:35;;;;;;;19.38;5.68;;;6.60;100.00;;;;;;4957075;28;20117;-70
2023/10/28 06:10:04;;;;;;;18.08;6.10;;;6.60;100.00;;;;;;4959619;28;20534;-74
2023/10/28 06:12:31;;;;;;;21.00;7.20;;;6.60;100.00;;;;;;4943614;29;20507;-75
2023/10/28 06:14:58;;;;;;;17.05;7.30;;;6.70;100.00;;;;;;4936538;28;20090;-75
2023/10/28 06:17:25;;;;;;;15.18;5.70;;;6.60;100.00;;;;;;4957954;28;20074;-75
2023/10/28 06:19:52;;;;;;;19.05;6.60;;;6.70;100.00;;;;;;4962090;28;20039;-75
2023/10/28 06:22:19;;;;;;;20.42;6.50;;;6.70;100.00;;;;;;4944673;28;20050;-75
2023/10/28 06:24:46;;;;;;;17.45;6.32;;;6.60;100.00;;;;;;4961294;28;20082;-75
2023/10/28 06:27:12;;;;;;;18.27;7.07;;;6.60;100.00;;;;;;4960231;28;20134;-75
2023/10/28 06:29:39;;;;;;;17.58;6.57;;;6.60;100.00;;;;;;4957824;28;20154;-75
2023/10/28 06:32:07;;;;;;;18.65;7.00;;;6.60;100.00;;;;;;4958851;28;20051;-75
2023/10/28 06:34:34;;;;;;;20.85;6.35;;;6.60;100.00;;;;;;4960877;28;20645;-75
2023/10/28 06:37:01;;;;;;;16.33;6.47;;;6.60;100.00;;;;;;4936370;28;20560;-74
2023/10/28 06:39:28;;;;;;;21.85;6.93;;;6.60;100.00;;;;;;4959705;28;20081;-75
2023/10/28 06:41:54;;;;;;;18.42;8.23;;;6.70;100.00;;;;;;4945640;28;20086;-75
2023/10/28 06:44:22;;;;;;;21.25;7.28;;;6.70;100.00;;;;;;4947349;29;20122;-75
2023/10/28 06:46:49;;;;;;;19.13;7.05;;;6.70;100.00;;;;;;4937340;29;20047;-75
2023/10/28 06:49:16;;;;;;;22.63;7.10;;;6.70;100.00;;;;;;4961312;28;20059;-75
2023/10/28 06:51:43;;;;;;;18.42;6.90;;;6.70;100.00;;;;;;4955155;28;20395;-75
2023/10/28 06:54:10;;;;;;;20.52;7.55;;;6.70;100.00;;;;;;4952420;28;20055;-75
2023/10/28 06:56:37;;;;;;;20.85;7.35;;;6.70;100.00;;;;;;4945353;28;20820;-75
2023/10/28 06:59:04;;;;;;;19.33;7.15;;;6.70;100.00;;;;;;4937994;28;20047;-75
2023/10/28 07:01:32;;;;;;;18.02;6.95;;;6.70;100.00;;;;;;4957395;28;20715;-75
2023/10/28 07:04:01;;;;;;;17.85;6.68;;;6.70;100.00;;;;;;4951414;28;20055;-75
2023/10/28 07:06:28;;;;;;;14.75;6.05;;;6.80;100.00;;;;;;4937027;28;20047;-74
2023/10/28 07:08:55;;;;;;;20.33;7.57;;;6.80;100.00;;;;;;4959819;28;20137;-75
2023/10/28 07:11:22;;;;;;;24.33;7.22;;;6.80;100.00;;;;;;4938561;28;20050;-75
2023/10/28 07:13:49;;;;;;;23.75;7.93;;;6.80;100.00;;;;;;4960310;28;20051;-76
2023/10/28 07:16:17;;;;;;;21.73;7.82;;;6.80;100.00;;;;;;4961004;28;20714;-75
2023/10/28 07:18:46;;;;;;;22.23;7.65;;;6.80;100.00;;;;;;4943369;28;20176;-76
2023/10/28 07:21:13;;;;;;;27.20;8.50;;;6.90;100.00;;;;;;4964067;28;20070;-75
2023/10/28 07:23:41;;;;;;;26.50;7.88;;;6.90;100.00;;;;;;4962065;28;20051;-75
2023/10/28 07:26:08;;;;;;;22.00;8.00;;;6.90;100.00;;;;;;4945411;28;20105;-74
2023/10/28 07:28:37;;;;;;;18.05;7.68;;;6.90;100.00;;;;;;4961673;28;20077;-74
2023/10/28 07:31:05;;;;;;;23.92;7.07;;;6.90;100.00;;;;;;4958772;28;20063;-73
2023/10/28 07:33:33;;;;;;;21.67;7.45;;;6.80;100.00;;;;;;4959009;28;20578;-75
2023/10/28 07:36:04;;;;;;;28.58;7.82;;;6.90;100.00;;;;;;4960289;28;21417;-76
2023/10/28 07:38:31;;;;;;;24.67;7.70;;;6.80;100.00;;;;;;4940688;28;20055;-76
2023/10/28 07:40:59;;;;;;;20.02;8.10;;;6.90;100.00;;;;;;4941339;28;20051;-75
2023/10/28 07:43:26;;;;;;;24.08;8.27;;;6.90;100.00;;;;;;4956960;28;20049;-75
2023/10/28 07:45:53;;;;;;;22.75;8.32;;;6.90;100.00;;;;;;4958393;28;20149;-75
2023/10/28 07:48:20;;;;;;;23.10;7.80;;;6.90;100.00;;;;;;4956122;28;20112;-75
2023/10/28 07:50:48;;;;;;;26.50;8.00;;;6.90;100.00;;;;;;4939925;28;20141;-75
2023/10/28 07:53:17;;;;;;;23.80;7.43;;;6.90;100.00;;;;;;4941203;28;20050;-75
2023/10/28 07:55:44;;;;;;;21.15;7.90;;;6.90;100.00;;;;;;4959947;28;20514;-75
2023/10/28 07:58:11;;;;;;;30.45;8.10;;;7.00;100.00;;;;;;4966852;28;20123;-75
2023/10/28 08:00:38;;;;;;;23.88;7.47;;;7.00;100.00;;;;;;4958079;28;20050;-75
2023/10/28 08:03:04;;;;;;;24.95;7.75;;;7.00;100.00;;;;;;4938820;28;20156;-74
2023/10/28 08:05:31;;;;;;;23.02;7.82;;;7.10;100.00;;;;;;4959354;28;20054;-74
2023/10/28 08:07:59;;;;;;;28.25;7.22;;;7.10;100.00;;;;;;4960321;28;20608;-75
2023/10/28 08:10:26;;;;;;;24.25;8.02;;;7.10;100.00;;;;;;4946605;28;20592;-76
2023/10/28 08:12:58;;;;;;;29.77;7.80;;;7.20;100.00;;;;;;4963393;28;20043;-73
2023/10/28 08:15:25;;;;;;;27.77;9.25;;;7.20;100.00;;;;;;4953750;28;20044;-72
2023/10/28 08:17:52;;;;;;;28.13;8.27;;;7.20;100.00;;;;;;4949922;28;20736;-75
2023/10/28 08:20:19;;;;;;;26.77;8.27;;;7.20;100.00;;;;;;4945540;28;20078;-78
2023/10/28 08:22:46;;;;;;;31.55;9.13;;;7.30;100.00;;;;;;4964030;28;20050;-76
2023/10/28 08:25:15;;;;;;;28.02;9.10;;;7.30;100.00;;;;;;4957400;28;20069;-76
2023/10/28 08:27:44;;;;;;;32.70;9.02;;;7.30;100.00;;;;;;4966934;28;20051;-82
2023/10/28 08:30:17;;;;;;;24.73;9.00;;;7.30;100.00;;;;;;4940323;28;20197;-74
2023/10/28 08:32:44;;;;;;;29.05;9.35;;;7.30;100.00;;;;;;4959933;28;20050;-74
2023/10/28 08:35:11;;;;;;;28.92;9.98;;;7.30;100.00;;;;;;4964377;28;20055;-75
2023/10/28 08:37:38;;;;;;;30.55;8.82;;;7.40;100.00;;;;;;4960004;28;20061;-72
2023/10/28 08:40:10;;;;;;;34.80;9.77;;;7.40;100.00;;;;;;4950543;28;20055;-73
2023/10/28 08:42:38;;;;;;;29.08;9.38;;;7.40;100.00;;;;;;4956277;28;20058;-75
2023/10/28 08:45:08;;;;;;;39.35;10.35;;;7.40;100.00;;;;;;4955224;28;20062;-75
2023/10/28 08:47:38;;;;;;;28.88;9.35;;;7.40;100.00;;;;;;4962097;28;20046;-75
2023/10/28 08:50:09;;;;;;;31.17;9.82;;;7.40;100.00;;;;;;4961316;28;20524;-76
2023/10/28 08:52:37;;;;;;;37.88;10.23;;;7.40;100.00;;;;;;4944138;28;20042;-76
2023/10/28 08:55:05;;;;;;;31.27;9.75;;;7.50;100.00;;;;;;4938047;28;20497;-75
2023/10/28 08:57:34;;;;;;;31.58;10.10;;;7.50;100.00;;;;;;4952197;28;20118;-76
2023/10/28 09:00:11;;;;;;;35.47;9.75;;;7.50;100.00;;;;;;4957215;28;20054;-76
2023/10/28 09:02:41;;;;;;;30.88;10.70;;;7.50;100.00;;;;;;4955212;28;20058;-75
2023/10/28 09:05:08;;;;;;;29.35;9.68;;;7.60;100.00;;;;;;4956467;28;20055;-70
2023/10/28 09:07:35;;;;;;;26.00;8.70;;;7.60;100.00;;;;;;4962523;23;20047;-70
2023/10/28 09:10:04;;;;;;;39.40;10.35;;;7.60;100.00;;;;;;4932379;29;20447;-70
2023/10/28 09:12:32;;;;;;;26.88;8.95;;;7.60;100.00;;;;;;4934432;29;20572;-71
2023/10/28 09:14:59;;;;;;;30.80;9.10;;;7.60;100.00;;;;;;4925904;29;20690;-71
2023/10/28 09:17:26;;;;;;;28.73;8.02;;;7.60;100.00;;;;;;4918038;29;20056;-71
2023/10/28 09:19:53;;;;;;;31.30;8.25;;;7.50;100.00;;;;;;4914411;29;20552;-71
2023/10/28 09:22:23;;;;;;;30.80;7.90;;;7.50;100.00;;;;;;4917477;29;20058;-70
2023/10/28 09:24:53;;;;;;;27.98;9.13;;;7.50;100.00;;;;;;4932323;29;20154;-70
2023/10/28 09:27:21;;;;;;;35.92;9.73;;;7.60;100.00;;;;;;4914374;29;20260;-71
2023/10/28 09:29:48;;;;;;;27.50;8.93;;;7.60;100.00;;;;;;4914430;29;20080;-71
2023/10/28 09:32:18;;;;;;;34.75;8.98;;;7.60;100.00;;;;;;4933762;29;20047;-70
2023/10/28 09:34:45;;;;;;;32.47;9.65;;;7.70;100.00;;;;;;4920176;29;20078;-72
2023/10/28 09:37:12;;;;;;;29.33;9.60;;;7.70;100.00;;;;;;4932256;29;20103;-72
2023/10/28 09:39:41;;;;;;;29.17;9.60;;;7.70;100.00;;;;;;4919533;29;20416;-70
2023/10/28 09:42:09;;;;;;;27.80;9.00;;;7.60;100.00;;;;;;4932449;29;20103;-70
2023/10/28 09:44:37;;;;;;;29.88;8.65;;;7.70;100.00;;;;;;4928083;29;20929;-70
2023/10/28 09:47:05;;;;;;;33.83;11.10;;;7.60;100.00;;;;;;4939137;29;20079;-71
2023/10/28 09:49:33;;;;;;;40.17;10.82;;;7.60;100.00;;;;;;4932896;29;20579;-71
2023/10/28 09:52:13;;;;;;;26.80;9.63;;;7.60;100.00;;;;;;4932741;29;20055;-70
2023/10/28 09:54:42;;;;;;;31.98;9.23;;;7.60;100.00;;;;;;4936747;28;20107;-70
2023/10/28 09:57:10;;;;;;;30.02;8.77;;;7.50;100.00;;;;;;4915373;29;20087;-70
2023/10/28 09:59:40;;;;;;;26.65;8.65;;;7.60;100.00;;;;;;4914441;29;20400;-69
2023/10/28 10:02:39;;;;;;;33.75;10.35;;;7.60;100.00;;;;;;4917377;29;20075;-69
2023/10/28 10:05:14;;;;;;;42.17;12.88;;;7.60;100.00;;;;;;4934122;29;20055;-70
2023/10/28 10:07:42;;;;;;;44.60;14.00;;;7.70;100.00;;;;;;4933122;29;20445;-70
2023/10/28 10:10:20;;;;;;;34.97;12.07;;;7.70;100.00;;;;;;4921218;29;20056;-69
2023/10/28 10:12:54;;;;;;;41.22;13.32;;;7.70;100.00;;;;;;4936457;29;20058;-70
2023/10/28 10:15:22;;;;;;;36.15;10.95;;;7.60;100.00;;;;;;4914067;29;20119;-70
2023/10/28 10:18:10;;;;;;;31.15;9.18;;;7.70;100.00;;;;;;4912271;29;20308;-70
2023/10/28 10:20:43;;;;;;;24.73;8.57;;;7.70;100.00;;;;;;4929146;29;20050;-70
2023/10/28 10:23:10;;;;;;;28.55;8.70;;;7.70;100.00;;;;;;4913189;29;20082;-70
2023/10/28 10:25:43;;;;;;;28.83;10.40;;;7.70;100.00;;;;;;4927808;29;20592;-70
2023/10/28 10:28:15;;;;;;;32.65;9.30;;;7.70;100.00;;;;;;4936326;28;20408;-70
2023/10/28 10:30:42;;;;;;;36.33;8.95;;;7.70;100.00;;;;;;4940738;28;20051;-70
2023/10/28 10:33:12;;;;;;;28.52;9.68;;;7.80;100.00;;;;;;4925686;29;20058;-70
2023/10/28 10:35:48;;;;;;;34.40;8.65;;;7.80;100.00;;;;;;4936097;29;20091;-71
2023/10/28 10:38:14;;;;;;;;;;;7.80;100.00;;;;;;4933379;29;20055;-71
2023/10/28 10:40:41;;;;;;;41.63;11.30;;;7.80;100.00;;;;;;4938447;29;20355;-71
2023/10/28 10:43:09;;;;;;;34.20;10.65;;;7.80;100.00;;;;;;4939548;29;20129;-70
2023/10/28 10:45:37;;;;;;;35.17;11.02;;;7.90;100.00;;;;;;4937293;29;20284;-70
2023/10/28 10:48:07;;;;;;;32.92;9.60;;;7.90;100.00;;;;;;4920061;29;20055;-71
2023/10/28 10:50:35;;;;;;;33.15;9.98;;;7.90;100.00;;;;;;4938032;29;20063;-70
2023/10/28 10:53:03;;;;;;;34.03;9.07;;;7.90;100.00;;;;;;4933356;29;20048;-70
2023/10/28 10:55:31;;;;;;;37.47;11.35;;;8.00;100.00;;;;;;4917027;29;20535;-71
2023/10/28 10:57:58;;;;;;;39.92;11.55;;;8.00;100.00;;;;;;4934748;29;20054;-72
2023/10/28 11:00:26;;;;;;;62.05;11.52;;;8.10;100.00;;;;;;4919926;29;20416;-70
2023/10/28 11:02:58;;;;;;;38.47;10.35;;;8.10;100.00;;;;;;4934264;29;20421;-70
2023/10/28 11:05:30;;;;;;;38.22;10.27;;;8.10;100.00;;;;;;4916443;29;20082;-70
2023/10/28 11:07:58;;;;;;;39.65;12.65;;;8.10;100.00;;;;;;4915151;29;20428;-70
2023/10/28 11:10:26;;;;;;;41.90;10.57;;;8.20;100.00;;;;;;4916551;29;20543;-69
2023/10/28 11:12:53;;;;;;;36.70;11.63;;;8.20;100.00;;;;;;4940075;29;20429;-70
2023/10/28 11:15:21;;;;;;;39.97;11.43;;;8.20;100.00;;;;;;4944160;29;20078;-70
2023/10/28 11:17:50;;;;;;;29.25;10.48;;;8.20;100.00;;;;;;4919311;29;20477;-69
2023/10/28 11:20:21;;;;;;;49.83;12.80;;;8.20;100.00;;;;;;4938734;29;20051;-70
2023/10/28 11:22:48;;;;;;;34.55;10.70;;;8.20;100.00;;;;;;4937313;29;20169;-70
2023/10/28 11:25:15;;;;;;;41.78;13.27;;;8.20;100.00;;;;;;4932241;29;20221;-69
2023/10/28 11:27:42;;;;;;;32.83;10.80;;;8.20;100.00;;;;;;4937733;29;20054;-70
2023/10/28 11:30:10;;;;;;;33.42;11.73;;;8.10;100.00;;;;;;4921639;29;20198;-69
2023/10/28 11:32:40;;;;;;;43.17;11.05;;;8.10;100.00;;;;;;4917072;29;20048;-69
2023/10/28 11:35:11;;;;;;;39.50;12.25;;;8.10;100.00;;;;;;4930024;29;20496;-70
2023/10/28 11:37:41;;;;;;;33.83;11.15;;;8.20;100.00;;;;;;4927479;29;20059;-70
2023/10/28 11:40:10;;;;;;;41.78;12.10;;;8.20;100.00;;;;;;4934387;29;20146;-70
2023/10/28 11:42:37;;;;;;;36.42;11.07;;;8.20;100.00;;;;;;4937743;29;20432;-70
2023/10/28 11:45:09;;;;;;;38.58;11.82;;;8.10;100.00;;;;;;4914301;29;20425;-70
2023/10/28 11:47:36;;;;;;;36.30;11.25;;;8.20;100.00;;;;;;4935784;29;20114;-70
2023/10/28 11:50:04;;;;;;;35.58;10.27;;;8.20;100.00;;;;;;4937044;29;20527;-69
2023/10/28 11:52:37;;;;;;;38.50;12.10;;;8.20;100.00;;;;;;4933728;29;20086;-69
2023/10/28 11:55:08;;;;;;;38.28;11.95;;;8.20;100.00;;;;;;4916713;29;20423;-70
2023/10/28 11:57:35;;;;;;;46.03;12.18;;;8.20;100.00;;;;;;4933436;29;20078;-69
2023/10/28 12:00:04;;;;;;;39.47;12.65;;;8.20;100.00;;;;;;4932290;29;20059;-69
2023/10/28 12:02:31;;;;;;;48.38;13.23;;;8.20;100.00;;;;;;4916086;29;20070;-69
2023/10/28 12:04:58;;;;;;;34.17;11.75;;;8.30;100.00;;;;;;4930842;29;20457;-71
2023/10/28 12:07:25;;;;;;;39.50;11.73;;;8.30;100.00;;;;;;4932789;29;20070;-69
2023/10/28 12:09:52;;;;;;;39.15;10.73;;;8.40;100.00;;;;;;4929987;29;20138;-69
2023/10/28 12:12:19;;;;;;;39.53;11.27;;;8.40;100.00;;;;;;4930669;29;20086;-69
2023/10/28 12:14:46;;;;;;;42.05;11.65;;;8.40;100.00;;;;;;4926467;29;20496;-69
2023/10/28 12:17:13;;;;;;;34.72;11.25;;;8.50;100.00;;;;;;4934237;29;20154;-68
2023/10/28 12:19:42;;;;;;;29.30;9.65;;;8.50;100.00;;;;;;4913526;29;20052;-69
2023/10/28 12:22:09;;;;;;;31.15;10.05;;;8.50;100.00;;;;;;4932131;29;20043;-69
2023/10/28 12:24:36;;;;;;;33.45;10.93;;;8.50;100.00;;;;;;4916235;29;20069;-69
2023/10/28 12:27:03;;;;;;;32.75;10.23;;;8.60;100.00;;;;;;4914118;29;20147;-69
2023/10/28 12:29:30;;;;;;;29.50;9.55;;;8.50;100.00;;;;;;4930945;29;20079;-69
2023/10/28 12:31:57;;;;;;;31.25;9.82;;;8.50;100.00;;;;;;4933859;29;20270;-69
2023/10/28 12:34:24;;;;;;;31.25;10.00;;;8.50;100.00;;;;;;4929954;29;20568;-69
2023/10/28 12:36:51;;;;;;;27.55;8.75;;;8.50;100.00;;;;;;4929663;29;20044;-69
2023/10/28 12:39:18;;;;;;;29.27;10.15;;;8.40;100.00;;;;;;4930849;29;20082;-69
2023/10/28 12:41:46;;;;;;;40.08;8.35;;;8.40;100.00;;;;;;4929344;29;20130;-69
2023/10/28 12:44:13;;;;;;;36.15;10.63;;;8.40;100.00;;;;;;4929180;29;20062;-69